Time;durP1;ratioP1;P1;durP2;ratioP2;P2;SDS_P1;SDS_P2;PMS_P1;PMS_P2;Temp;Humidity;BMP_temperature;BMP_pressure;BME280_temperature;BME280_humidity;BME280_pressure;Samples;Min_cycle;Max_cycle;Signal;HPM_P1;HPM_P2
2021/09/16 00:02:49;;;;;;;6.07;3.93;;;;;;;21.90;59.63;97706.22;8397838;28;20209;-63
2021/09/16 00:06:51;;;;;;;3.93;3.40;;;;;;;21.83;59.84;97713.06;8386850;28;20234;-63
2021/09/16 00:10:56;;;;;;;5.20;3.53;;;;;;;21.76;60.33;97706.69;8386881;28;20203;-63
2021/09/16 00:14:59;;;;;;;4.63;3.60;;;;;;;21.79;60.38;97707.25;8386733;28;20214;-63
2021/09/16 00:19:02;;;;;;;4.93;3.50;;;;;;;21.78;60.59;97707.38;8386780;28;20227;-63
2021/09/16 00:23:04;;;;;;;5.83;3.93;;;;;;;21.74;60.56;97706.00;8386699;28;20199;-63
2021/09/16 00:27:09;;;;;;;5.90;4.20;;;;;;;21.74;60.56;97704.22;8386865;28;20206;-64
2021/09/16 00:31:12;;;;;;;8.50;4.50;;;;;;;21.73;60.67;97710.47;8386369;28;20205;-63
2021/09/16 00:35:14;;;;;;;4.43;3.97;;;;;;;21.73;60.97;97705.19;8404847;28;20214;-63
2021/09/16 00:39:17;;;;;;;6.27;4.40;;;;;;;21.77;60.75;97703.91;8452862;28;20233;-63
2021/09/16 00:43:22;;;;;;;5.70;3.70;;;;;;;21.79;60.73;97706.41;8453139;28;20207;-63
2021/09/16 00:47:25;;;;;;;4.83;3.53;;;;;;;21.82;60.35;97706.97;8452690;28;20489;-63
2021/09/16 00:51:27;;;;;;;6.00;4.10;;;;;;;21.78;60.59;97700.31;8452762;28;20486;-63
2021/09/16 00:55:31;;;;;;;6.60;4.20;;;;;;;21.76;61.11;97714.59;8452178;28;20265;-64
2021/09/16 00:59:35;;;;;;;5.73;4.07;;;;;;;21.85;60.83;97716.38;8452388;28;20221;-63
2021/09/16 01:03:38;;;;;;;4.47;3.70;;;;;;;21.81;60.63;97720.28;8425779;28;20199;-64
2021/09/16 01:07:41;;;;;;;4.73;3.77;;;;;;;21.75;60.89;97723.50;8418042;28;20239;-64
2021/09/16 01:11:44;;;;;;;4.40;3.87;;;;;;;21.61;61.73;97723.00;8418282;28;20203;-64
2021/09/16 01:15:48;;;;;;;4.77;3.80;;;;;;;21.74;61.21;97720.03;8418055;28;20201;-64
2021/09/16 01:19:51;;;;;;;5.87;4.00;;;;;;;21.72;61.35;97718.50;8417147;28;20418;-64
2021/09/16 01:23:55;;;;;;;6.00;3.10;;;;;;;21.67;61.62;97721.59;8417889;28;20199;-63
2021/09/16 01:28:00;;;;;;;4.93;3.70;;;;;;;21.75;60.85;97724.31;8417654;28;20210;-64
2021/09/16 01:32:04;;;;;;;4.53;3.30;;;;;;;21.74;61.35;97719.19;8417660;28;20525;-63
2021/09/16 01:36:10;;;;;;;5.07;3.70;;;;;;;21.72;61.56;97724.59;8417565;28;20227;-63
2021/09/16 01:40:15;;;;;;;6.63;3.80;;;;;;;21.63;62.59;97715.78;8417245;28;20227;-64
2021/09/16 01:44:18;;;;;;;6.60;3.43;;;;;;;21.70;62.50;97716.00;8417181;28;20205;-63
2021/09/16 01:48:21;;;;;;;4.97;3.50;;;;;;;21.73;63.12;97710.47;8417242;28;20218;-64
2021/09/16 01:52:24;;;;;;;5.93;3.17;;;;;;;21.73;62.93;97710.47;8416963;28;20205;-63
2021/09/16 01:56:28;;;;;;;4.03;3.27;;;;;;;21.72;62.65;97713.22;8416866;28;20508;-63
2021/09/16 02:00:31;;;;;;;5.43;3.30;;;;;;;21.60;63.16;97705.50;8416496;28;20226;-64
2021/09/16 02:04:34;;;;;;;4.50;3.47;;;;;;;21.70;62.75;97708.09;8416642;28;20202;-63
2021/09/16 02:08:37;;;;;;;6.17;3.70;;;;;;;21.66;62.71;97710.19;8416539;28;20225;-64
2021/09/16 02:12:41;;;;;;;3.87;3.50;;;;;;;21.67;62.59;97714.50;8416537;28;20498;-63
2021/09/16 02:16:44;;;;;;;5.27;3.40;;;;;;;21.63;63.10;97713.13;8416600;28;20211;-63
2021/09/16 02:20:47;;;;;;;5.00;3.60;;;;;;;21.65;63.01;97727.00;8416163;28;20264;-63
2021/09/16 02:24:50;;;;;;;3.97;3.20;;;;;;;21.66;63.07;97714.63;8416395;28;20208;-63
2021/09/16 02:28:54;;;;;;;7.30;3.30;;;;;;;21.67;62.79;97711.03;8416250;28;20384;-63
2021/09/16 02:32:57;;;;;;;5.00;3.23;;;;;;;21.66;62.81;97717.28;8416150;28;20227;-63
2021/09/16 02:37:00;;;;;;;4.00;3.40;;;;;;;21.64;63.07;97711.31;8415961;28;20210;-63
2021/09/16 02:41:03;;;;;;;5.33;3.60;;;;;;;21.51;63.57;97702.91;8415897;28;20229;-63
2021/09/16 02:45:08;;;;;;;4.73;3.10;;;;;;;21.62;63.31;97711.47;8415989;28;20202;-63
2021/09/16 02:49:11;;;;;;;4.70;3.50;;;;;;;21.64;62.76;97706.06;8416067;28;20233;-63
2021/09/16 02:53:14;;;;;;;4.97;3.37;;;;;;;21.64;63.04;97712.13;8415653;28;20505;-64
2021/09/16 02:57:17;;;;;;;5.30;3.40;;;;;;;21.66;62.66;97718.09;8416124;28;20198;-63
2021/09/16 03:01:22;;;;;;;4.33;3.80;;;;;;;21.61;62.88;97714.22;8415455;28;20226;-63
2021/09/16 03:05:25;;;;;;;5.23;4.23;;;;;;;21.50;63.04;97715.25;8415433;28;20208;-64
2021/09/16 03:09:28;;;;;;;4.60;4.20;;;;;;;21.53;62.39;97714.94;8415523;28;20203;-64
2021/09/16 03:13:30;;;;;;;4.17;3.73;;;;;;;21.56;62.40;97712.03;8415547;28;20316;-64
2021/09/16 03:17:35;;;;;;;5.70;3.97;;;;;;;21.48;62.81;97710.13;8415550;28;20493;-64
2021/09/16 03:21:38;;;;;;;5.80;3.90;;;;;;;21.54;62.07;97706.09;8415242;28;20226;-64
2021/09/16 03:25:41;;;;;;;5.43;3.60;;;;;;;21.57;61.88;97708.44;8415274;28;20206;-64
2021/09/16 03:29:44;;;;;;;4.97;3.83;;;;;;;21.61;61.96;97708.97;8415197;28;20206;-63
2021/09/16 03:33:48;;;;;;;4.83;3.33;;;;;;;21.63;62.14;97699.97;8414958;28;20521;-63
2021/09/16 03:37:51;;;;;;;4.50;4.10;;;;;;;21.62;62.43;97700.91;8415145;28;20222;-64
2021/09/16 03:41:54;;;;;;;4.93;3.80;;;;;;;21.63;62.83;97702.59;8415315;28;20227;-63
2021/09/16 03:45:57;;;;;;;5.03;3.63;;;;;;;21.60;62.23;97694.97;8421072;28;20209;-63
2021/09/16 03:50:01;;;;;;;4.93;3.53;;;;;;;21.63;62.09;97699.97;8420971;28;20386;-63
2021/09/16 03:54:04;;;;;;;5.00;3.60;;;;;;;21.63;62.42;97694.69;8420752;28;20265;-63
2021/09/16 03:58:07;;;;;;;3.43;3.13;;;;;;;21.60;62.62;97691.50;8441861;28;20206;-63
2021/09/16 04:02:12;;;;;;;4.57;3.20;;;;;;;21.55;62.70;97691.09;8439454;28;20226;-63
2021/09/16 04:06:17;;;;;;;5.07;3.30;;;;;;;21.62;62.11;97692.19;8420183;28;20239;-64
2021/09/16 04:10:20;;;;;;;5.37;3.30;;;;;;;21.61;62.26;97688.75;8412325;28;20195;-63
2021/09/16 04:14:22;;;;;;;4.73;3.13;;;;;;;21.61;62.33;97690.53;8413393;28;20207;-63
2021/09/16 04:18:25;;;;;;;5.30;3.60;;;;;;;21.54;62.70;97686.81;8420095;28;20286;-63
2021/09/16 04:22:30;;;;;;;4.40;3.37;;;;;;;21.55;62.99;97681.41;8419902;28;20234;-64
2021/09/16 04:26:33;;;;;;;6.57;3.83;;;;;;;21.57;63.35;97683.88;8419817;28;20206;-64
2021/09/16 04:30:35;;;;;;;5.90;3.37;;;;;;;21.56;63.29;97687.50;8419713;28;20203;-63
2021/09/16 04:34:38;;;;;;;3.90;3.50;;;;;;;21.56;64.01;97683.06;8414383;28;20218;-63
2021/09/16 04:38:42;;;;;;;6.33;3.80;;;;;;;21.55;63.43;97684.06;8419470;28;20482;-63
2021/09/16 04:42:45;;;;;;;3.53;2.97;;;;;;;21.51;64.02;97681.84;8419238;28;20223;-64
2021/09/16 04:46:48;;;;;;;3.87;3.10;;;;;;;21.51;64.36;97695.00;8419042;28;20206;-63
2021/09/16 04:50:51;;;;;;;7.20;3.40;;;;;;;21.51;64.69;97689.72;8418849;28;20210;-63
2021/09/16 04:54:55;;;;;;;8.67;3.90;;;;;;;21.45;64.05;97699.84;8417831;28;20206;-64
2021/09/16 04:58:58;;;;;;;6.07;3.43;;;;;;;21.46;63.99;97701.53;8418777;28;20203;-63
2021/09/16 05:03:01;;;;;;;5.40;3.33;;;;;;;21.43;64.31;97706.22;8418769;28;20249;-63
2021/09/16 05:07:04;;;;;;;4.60;3.47;;;;;;;21.41;64.56;97703.72;8418437;28;20239;-63
2021/09/16 05:11:08;;;;;;;9.00;3.90;;;;;;;21.41;64.71;97705.53;8418312;28;20210;-63
2021/09/16 05:15:12;;;;;;;4.47;3.43;;;;;;;21.41;64.65;97710.81;8418403;28;20206;-63
2021/09/16 05:19:14;;;;;;;5.37;3.33;;;;;;;21.32;65.02;97707.22;8418102;28;20217;-63
2021/09/16 05:23:18;;;;;;;4.87;3.70;;;;;;;21.34;64.96;97713.16;8417609;28;20530;-63
2021/09/16 05:27:22;;;;;;;9.73;4.07;;;;;;;21.32;64.84;97719.56;8418098;28;20487;-63
2021/09/16 05:31:25;;;;;;;5.10;4.10;;;;;;;21.33;65.12;97721.22;8417725;28;20499;-63
2021/09/16 05:35:28;;;;;;;5.60;4.03;;;;;;;21.31;64.90;97715.28;8417238;28;20290;-63
2021/09/16 05:39:31;;;;;;;5.93;3.97;;;;;;;21.32;64.83;97725.66;8417623;28;20209;-63
2021/09/16 05:43:35;;;;;;;6.43;3.93;;;;;;;21.30;65.18;97719.69;8417273;28;20240;-63
2021/09/16 05:47:38;;;;;;;5.10;3.60;;;;;;;21.35;65.35;97724.56;8417350;28;20210;-63
2021/09/16 05:51:41;;;;;;;7.67;3.57;;;;;;;21.34;65.91;97726.34;8417085;28;20210;-63
2021/09/16 05:55:45;;;;;;;5.30;3.57;;;;;;;21.27;66.14;97723.44;8416543;28;20207;-64
2021/09/16 05:59:50;;;;;;;5.10;3.50;;;;;;;21.31;66.29;97729.25;8416886;28;20359;-63
2021/09/16 06:03:52;;;;;;;6.60;3.43;;;;;;;21.28;66.89;97722.50;8416538;28;20553;-63
2021/09/16 06:07:55;;;;;;;4.47;3.40;;;;;;;21.33;66.50;97724.69;8416263;28;20227;-64
2021/09/16 06:12:02;;;;;;;3.53;3.07;;;;;;;21.39;66.54;97728.56;8416491;28;20207;-64
2021/09/16 06:16:06;;;;;;;4.80;3.73;;;;;;;21.34;66.96;97730.78;8416508;28;20199;-63
2021/09/16 06:20:11;;;;;;;4.50;3.30;;;;;;;21.31;67.00;97728.44;8416430;28;20212;-63
2021/09/16 06:24:13;;;;;;;4.00;3.47;;;;;;;21.32;66.74;97738.00;8416274;28;20234;-63
2021/09/16 06:28:16;;;;;;;5.23;4.00;;;;;;;21.34;67.43;97739.50;8416556;28;20199;-63
2021/09/16 06:32:21;;;;;;;5.77;4.30;;;;;;;21.31;67.58;97734.53;8416080;28;20203;-63
2021/09/16 06:36:24;;;;;;;6.20;4.70;;;;;;;21.19;68.30;97738.28;8416321;28;20233;-63
2021/09/16 06:40:30;;;;;;;5.63;4.47;;;;;;;21.22;67.94;97746.72;8416097;28;20494;-63
2021/09/16 06:44:32;;;;;;;7.30;5.30;;;;;;;21.21;68.06;97744.22;8416189;28;20231;-63
2021/09/16 06:48:37;;;;;;;7.80;4.97;;;;;;;21.31;67.94;97744.25;8416097;28;20565;-63
2021/09/16 06:52:40;;;;;;;8.87;5.23;;;;;;;21.26;67.78;97745.47;8416008;28;20248;-63
2021/09/16 06:56:43;;;;;;;6.37;4.90;;;;;;;21.32;67.34;97740.63;8415923;28;20206;-63
2021/09/16 07:00:45;;;;;;;7.97;5.00;;;;;;;21.40;67.36;97748.63;8415504;28;20199;-63
2021/09/16 07:04:50;;;;;;;8.10;5.00;;;;;;;21.36;67.21;97750.75;8415296;28;20298;-63
2021/09/16 07:08:54;;;;;;;6.60;4.73;;;;;;;21.41;67.47;97753.78;8415626;28;20420;-63
2021/09/16 07:12:57;;;;;;;8.20;4.87;;;;;;;21.34;67.19;97755.31;8415372;28;20208;-63
2021/09/16 07:17:00;;;;;;;5.27;4.77;;;;;;;21.31;67.64;97755.59;8416055;28;20225;-63
2021/09/16 07:21:05;;;;;;;6.57;5.00;;;;;;;21.37;67.54;97764.75;8421640;28;20371;-63
2021/09/16 07:25:10;;;;;;;5.50;4.97;;;;;;;21.29;67.59;97758.38;8421718;28;20236;-63
2021/09/16 07:29:13;;;;;;;7.37;5.27;;;;;;;21.36;67.42;97763.91;8421650;28;20199;-63
2021/09/16 07:33:16;;;;;;;9.30;5.37;;;;;;;21.34;67.71;97757.94;8421196;28;20219;-63
2021/09/16 07:37:20;;;;;;;6.43;5.60;;;;;;;21.22;67.57;97762.53;8421349;28;20206;-63
2021/09/16 07:41:23;;;;;;;6.43;5.70;;;;;;;21.30;67.77;97761.81;8421093;28;20206;-63
2021/09/16 07:45:26;;;;;;;5.60;3.20;;;;;;;21.49;65.98;97766.25;8421108;28;20482;-60
2021/09/16 07:49:29;;;;;;;9.13;3.17;;;;;;;21.67;65.49;97771.66;8420886;28;20199;-62
2021/09/16 07:53:33;;;;;;;9.83;3.70;;;;;;;21.71;65.47;97770.38;8420134;28;20207;-60
2021/09/16 07:57:36;;;;;;;6.90;4.00;;;;;;;21.85;64.87;97775.19;8420443;28;20381;-60
2021/09/16 08:01:39;;;;;;;5.70;3.60;;;;;;;21.87;65.36;97782.94;8419337;28;20205;-74
2021/09/16 08:05:43;;;;;;;8.50;3.80;;;;;;;21.91;65.73;97784.31;8420279;28;20269;-78
2021/09/16 08:09:47;;;;;;;8.57;4.27;;;;;;;21.86;65.75;97787.41;8420559;28;20489;-75
2021/09/16 08:13:50;;;;;;;9.20;3.80;;;;;;;21.94;65.77;97784.03;8420354;28;20202;-77
2021/09/16 08:17:53;;;;;;;4.27;3.60;;;;;;;22.03;65.24;97795.53;8420184;28;20533;-77
2021/09/16 08:21:56;;;;;;;11.53;5.60;;;;;;;22.00;65.64;97799.28;8419910;28;20525;-76
2021/09/16 08:26:00;;;;;;;6.77;4.80;;;;;;;22.08;64.63;97803.81;8419952;28;20384;-77
2021/09/16 08:30:03;;;;;;;7.77;5.10;;;;;;;22.12;64.27;97797.28;8419616;28;20201;-75
2021/09/16 08:34:06;;;;;;;5.57;4.90;;;;;;;22.08;64.38;97810.91;8419547;28;20219;-77
2021/09/16 08:38:09;;;;;;;6.37;5.27;;;;;;;21.99;64.44;97810.81;8419547;28;20199;-76
2021/09/16 08:42:14;;;;;;;9.47;6.23;;;;;;;21.85;64.48;97819.16;8419339;28;20223;-76
2021/09/16 08:46:17;;;;;;;8.20;5.20;;;;;;;21.66;63.36;97825.31;8419288;28;20199;-76
2021/09/16 08:50:22;;;;;;;6.40;4.63;;;;;;;21.81;64.06;97830.97;8419104;28;20218;-77
2021/09/16 08:54:25;;;;;;;7.73;4.83;;;;;;;21.84;63.79;97830.69;8418982;28;20467;-76
2021/09/16 08:58:31;;;;;;;7.57;5.37;;;;;;;21.80;63.01;97827.53;8418694;28;20202;-77
2021/09/16 09:02:34;;;;;;;5.43;4.90;;;;;;;21.83;63.55;97839.56;8418433;28;20230;-76
2021/09/16 09:06:39;;;;;;;7.27;5.97;;;;;;;21.74;62.52;97837.78;8418275;28;20231;-76
2021/09/16 09:10:48;;;;;;;12.03;6.70;;;;;;;21.66;62.50;97838.50;8418429;28;20207;-76
2021/09/16 09:14:54;;;;;;;9.37;5.80;;;;;;;21.75;63.15;97842.09;8418392;28;20502;-77
2021/09/16 09:18:57;;;;;;;7.53;6.30;;;;;;;21.75;63.40;97847.38;8418543;28;20203;-75
2021/09/16 09:23:00;;;;;;;8.00;5.67;;;;;;;21.83;62.85;97855.38;8418229;28;20421;-78
2021/09/16 09:27:20;;;;;;;7.60;6.87;;;;;;;21.89;62.65;97853.97;8417760;28;20199;-78
2021/09/16 09:31:26;;;;;;;8.80;7.60;;;;;;;21.83;62.91;97848.31;8417805;28;20383;-79
2021/09/16 09:35:32;;;;;;;13.43;7.97;;;;;;;21.87;62.36;97848.84;8417443;28;20254;-79
2021/09/16 09:39:35;;;;;;;9.43;7.23;;;;;;;21.89;62.71;97846.91;8416250;28;20213;-79
2021/09/16 09:43:39;;;;;;;18.20;7.00;;;;;;;21.83;62.86;97848.31;8416883;28;20242;-76
2021/09/16 09:47:45;;;;;;;12.90;7.60;;;;;;;22.12;61.80;97846.56;8417266;28;20205;-78
2021/09/16 09:51:49;;;;;;;7.97;7.17;;;;;;;22.18;61.09;97852.09;8417255;28;20412;-77
2021/09/16 09:55:52;;;;;;;8.97;6.93;;;;;;;22.34;60.88;97848.06;8416911;28;20203;-76
2021/09/16 10:00:01;;;;;;;9.57;7.93;;;;;;;22.36;60.20;97841.66;8416818;28;20203;-74
2021/09/16 10:04:27;;;;;;;11.20;8.00;;;;;;;22.54;59.78;97851.44;8416666;28;20238;-78
2021/09/16 10:08:30;;;;;;;8.67;7.87;;;;;;;22.79;58.82;97849.91;8416515;28;20235;-76
2021/09/16 10:12:33;;;;;;;9.40;8.40;;;;;;;22.96;58.45;97849.13;8416791;28;20206;-80
2021/09/16 10:16:40;;;;;;;8.27;7.57;;;;;;;22.98;58.19;97851.59;8416724;28;20221;-61
2021/09/16 10:20:45;;;;;;;10.60;8.63;;;;;;;22.81;58.79;97859.34;8416525;28;20281;-61
2021/09/16 10:24:51;;;;;;;9.63;8.73;;;;;;;22.73;59.24;97855.78;8416625;28;20229;-61
2021/09/16 10:28:54;;;;;;;10.13;8.03;;;;;;;22.70;59.06;97862.19;8416459;28;20199;-61
2021/09/16 10:33:02;;;;;;;10.90;8.73;;;;;;;22.55;59.04;97864.47;8412350;28;20233;-61
2021/09/16 10:37:15;;;;;;;8.40;7.70;;;;;;;22.55;58.98;97858.38;8416317;28;20203;-61
2021/09/16 10:41:23;;;;;;;9.23;7.73;;;;;;;22.52;59.00;97861.28;8416123;28;20203;-61
2021/09/16 10:45:30;;;;;;;8.27;7.30;;;;;;;22.48;59.52;97862.56;8415896;28;20234;-61
2021/09/16 10:49:34;;;;;;;8.03;7.23;;;;;;;22.47;59.50;97853.00;8415943;28;20199;-61
2021/09/16 10:53:46;;;;;;;8.00;6.90;;;;;;;22.43;59.12;97860.38;8419299;28;20396;-61
2021/09/16 10:57:49;;;;;;;9.40;7.47;;;;;;;22.41;59.43;97857.06;8421975;28;20214;-61
2021/09/16 11:01:58;;;;;;;9.33;7.13;;;;;;;22.36;59.31;97852.19;8433692;28;20197;-76
2021/09/16 11:06:01;;;;;;;15.70;7.60;;;;;;;22.27;59.63;97842.50;8388673;28;20392;-75
2021/09/16 11:10:34;;;;;;;10.80;6.80;;;;;;;22.26;59.75;97846.16;8389019;28;20199;-76
2021/09/16 11:14:40;;;;;;;9.27;6.80;;;;;;;22.33;59.79;97849.03;8388218;28;20445;-78
2021/09/16 11:18:44;;;;;;;10.33;7.90;;;;;;;22.28;59.91;97854.75;8389025;28;20231;-77
2021/09/16 11:22:50;;;;;;;10.77;6.70;;;;;;;22.32;59.64;97845.56;8391341;28;20207;-79
2021/09/16 11:26:53;;;;;;;10.87;7.67;;;;;;;22.27;60.47;97847.78;8416402;28;20198;-78
2021/09/16 11:30:58;;;;;;;12.03;5.80;;;;;;;22.40;59.68;97850.94;8421431;28;20413;-60
2021/09/16 11:35:03;;;;;;;7.97;6.77;;;;;;;22.42;60.01;97854.25;8418119;28;20409;-61
2021/09/16 11:39:16;;;;;;;7.67;6.77;;;;;;;22.51;59.48;97849.09;8403575;28;20188;-61
2021/09/16 11:43:19;;;;;;;11.60;6.73;;;;;;;22.55;59.21;97847.81;8418105;28;20287;-60
2021/09/16 11:47:29;;;;;;;8.97;7.03;;;;;;;22.53;59.77;97855.06;8420697;28;20497;-63
2021/09/16 11:51:32;;;;;;;13.27;7.70;;;;;;;22.37;59.68;97840.69;8420951;28;20266;-62
2021/09/16 11:55:37;;;;;;;10.57;8.33;;;;;;;22.42;59.29;97848.16;8420914;28;20213;-61
2021/09/16 11:59:39;;;;;;;12.87;8.77;;;;;;;22.34;59.56;97854.16;8420629;28;20200;-61
2021/09/16 12:03:49;;;;;;;12.80;10.27;;;;;;;22.20;59.47;97851.94;8405970;28;20219;-61
2021/09/16 12:07:52;;;;;;;17.97;14.13;;;;;;;22.15;59.84;97859.47;8403123;28;20263;-61
2021/09/16 12:12:03;;;;;;;15.30;12.27;;;;;;;22.16;59.62;97858.47;8402996;28;20241;-61
2021/09/16 12:16:10;;;;;;;15.50;13.07;;;;;;;22.05;59.21;97860.34;8403739;28;20237;-61
2021/09/16 12:20:14;;;;;;;15.93;12.63;;;;;;;22.13;58.96;97859.63;8402862;28;20191;-61
2021/09/16 12:24:20;;;;;;;15.63;12.37;;;;;;;22.18;58.69;97862.66;8401844;28;20223;-61
2021/09/16 12:28:23;;;;;;;14.73;12.27;;;;;;;22.28;58.18;97862.66;8402379;28;20201;-61
2021/09/16 12:32:31;;;;;;;16.17;12.10;;;;;;;22.46;57.47;97862.72;8402208;28;20386;-61
2021/09/16 12:36:37;;;;;;;17.10;12.00;;;;;;;22.70;56.88;97856.91;8402302;28;20205;-61
2021/09/16 12:40:40;;;;;;;13.23;11.10;;;;;;;22.94;56.39;97856.34;8401978;28;20217;-61
2021/09/16 12:44:44;;;;;;;14.23;10.57;;;;;;;23.06;55.21;97848.25;8404339;28;20424;-61
2021/09/16 12:48:47;;;;;;;14.40;11.17;;;;;;;23.03;54.81;97842.25;8419087;28;20203;-61
2021/09/16 12:52:52;;;;;;;12.87;10.70;;;;;;;23.03;55.11;97836.16;8419097;28;20202;-61
2021/09/16 12:56:55;;;;;;;10.77;9.67;;;;;;;22.97;55.33;97847.28;8418734;28;20202;-61
2021/09/16 13:01:02;;;;;;;12.60;9.23;;;;;;;22.95;55.34;97847.44;8418835;28;20385;-60
2021/09/16 13:05:09;;;;;;;10.93;8.37;;;;;;;22.92;55.09;97839.81;8418362;28;20451;-60
2021/09/16 13:09:34;;;;;;;10.37;8.60;;;;;;;22.70;55.50;97845.53;8418231;28;20227;-61
2021/09/16 13:13:37;;;;;;;11.00;8.90;;;;;;;22.59;56.01;97838.63;8418551;28;20202;-78
2021/09/16 13:17:40;;;;;;;13.67;8.40;;;;;;;22.93;55.08;97830.91;8417394;28;20309;-77
2021/09/16 13:21:45;;;;;;;10.67;8.03;;;;;;;23.16;54.16;97831.34;8418169;28;20209;-76
2021/09/16 13:25:50;;;;;;;15.67;7.83;;;;;;;23.27;53.72;97832.09;8418142;28;20239;-76
2021/09/16 13:29:54;;;;;;;15.70;7.30;;;;;;;23.22;53.48;97824.63;8417619;28;20195;-78
2021/09/16 13:33:57;;;;;;;11.87;6.37;;;;;;;23.13;53.61;97828.16;8417561;28;20238;-78
2021/09/16 13:38:03;;;;;;;7.63;5.40;;;;;;;22.73;53.36;97838.16;8414564;28;20206;-77
2021/09/16 13:42:08;;;;;;;12.93;5.60;;;;;;;22.80;53.22;97826.00;8417790;28;20229;-78
2021/09/16 13:46:11;;;;;;;8.47;5.00;;;;;;;22.69;52.74;97830.66;8417232;28;20222;-77
2021/09/16 13:50:14;;;;;;;11.77;4.90;;;;;;;22.81;53.56;97832.94;8417502;28;20303;-61
2021/09/16 13:54:17;;;;;;;6.97;4.77;;;;;;;22.71;52.96;97840.06;8416462;28;20258;-61
2021/09/16 13:58:21;;;;;;;7.93;4.40;;;;;;;22.66;53.49;97845.00;8405801;28;20385;-61
2021/09/16 14:02:24;;;;;;;7.57;4.60;;;;;;;22.46;52.86;97846.88;8416695;28;20199;-61
2021/09/16 14:06:28;;;;;;;8.43;4.07;;;;;;;22.37;53.74;97845.09;8416358;28;20534;-61
2021/09/16 14:10:31;;;;;;;9.67;4.77;;;;;;;22.34;53.50;97840.16;8416653;28;20202;-61
2021/09/16 14:14:35;;;;;;;6.77;3.97;;;;;;;22.29;53.72;97843.19;8416494;28;20206;-61
2021/09/16 14:18:38;;;;;;;4.33;3.93;;;;;;;22.10;53.60;97849.34;8416299;28;20195;-61
2021/09/16 14:22:41;;;;;;;5.27;3.83;;;;;;;22.19;53.33;97856.41;8415157;28;20194;-61
2021/09/16 14:26:47;;;;;;;5.07;3.53;;;;;;;22.18;53.65;97851.25;8414987;28;20217;-61
2021/09/16 14:30:54;;;;;;;6.80;4.30;;;;;;;22.23;53.31;97844.56;8414044;28;20203;-61
2021/09/16 14:35:17;;;;;;;6.70;3.77;;;;;;;22.33;52.89;97854.28;8414871;28;20217;-61
2021/09/16 14:39:20;;;;;;;4.30;3.70;;;;;;;22.19;53.07;97860.84;8415122;28;20214;-61
2021/09/16 14:43:24;;;;;;;5.30;3.53;;;;;;;22.39;52.84;97856.34;8415033;28;20279;-61
2021/09/16 14:47:28;;;;;;;5.90;3.60;;;;;;;22.50;52.41;97853.53;8414831;28;20226;-61
2021/09/16 14:51:31;;;;;;;7.43;3.73;;;;;;;22.41;52.38;97860.53;8414874;28;20193;-61
2021/09/16 14:55:34;;;;;;;7.97;4.37;;;;;;;22.48;51.85;97854.66;8414778;28;20199;-61
2021/09/16 14:59:37;;;;;;;7.40;3.60;;;;;;;22.44;52.43;97859.38;8414639;28;20405;-61
2021/09/16 15:03:42;;;;;;;10.33;4.00;;;;;;;22.35;52.66;97855.84;8414750;28;20506;-60
2021/09/16 15:07:45;;;;;;;9.33;3.90;;;;;;;22.35;52.58;97862.88;8400105;28;20287;-61
2021/09/16 15:11:48;;;;;;;12.33;4.23;;;;;;;22.36;53.02;97854.84;8387245;28;20196;-61
2021/09/16 15:15:51;;;;;;;10.00;4.10;;;;;;;22.36;52.50;97846.94;8394017;28;20200;-61
2021/09/16 15:19:56;;;;;;;9.80;4.43;;;;;;;22.31;52.45;97853.59;8397772;28;20200;-61
2021/09/16 15:23:59;;;;;;;10.97;3.90;;;;;;;22.23;52.77;97855.13;8397716;28;20196;-60
2021/09/16 15:28:02;;;;;;;7.77;3.47;;;;;;;22.27;52.77;97858.34;8400631;28;20223;-61
2021/09/16 15:32:06;;;;;;;10.00;3.97;;;;;;;22.17;53.21;97857.53;8415213;28;20199;-61
2021/09/16 15:36:10;;;;;;;7.27;3.50;;;;;;;22.15;53.20;97857.66;8397472;28;20227;-61
2021/09/16 15:40:13;;;;;;;8.02;3.75;;;;;;;22.65;52.24;97856.50;8398540;28;20443;-60
2021/09/16 15:44:17;;;;;;;8.73;3.80;;;;;;;22.27;53.19;97844.31;8387849;28;20199;-60
2021/09/16 15:48:21;;;;;;;6.57;3.97;;;;;;;22.02;52.88;97843.97;8409196;28;20209;-62
2021/09/16 15:52:25;;;;;;;12.97;3.43;;;;;;;21.98;52.16;97847.88;8403331;28;20195;-61
2021/09/16 15:56:28;;;;;;;4.33;3.30;;;;;;;21.86;52.82;97845.38;8403306;28;20203;-61
2021/09/16 16:00:33;;;;;;;5.07;3.40;;;;;;;21.69;52.86;97835.59;8402396;28;20203;-61
2021/09/16 16:04:36;;;;;;;5.77;3.20;;;;;;;21.59;52.54;97846.13;8403171;28;20195;-62
2021/09/16 16:08:41;;;;;;;3.13;2.87;;;;;;;21.69;52.33;97853.22;8402850;28;20234;-62
2021/09/16 16:12:44;;;;;;;4.90;3.20;;;;;;;21.50;52.70;97860.16;8402906;28;20199;-61
2021/09/16 16:16:47;;;;;;;4.33;3.20;;;;;;;21.29;52.60;97860.25;8402760;28;20216;-62
2021/09/16 16:20:51;;;;;;;3.53;3.23;;;;;;;21.23;52.73;97874.81;8402708;28;20206;-62
2021/09/16 16:24:55;;;;;;;3.37;3.07;;;;;;;21.23;51.95;97871.34;8402337;28;20222;-62
2021/09/16 16:28:58;;;;;;;4.13;3.37;;;;;;;21.15;52.42;97877.31;8403098;28;20202;-62
2021/09/16 16:33:02;;;;;;;4.93;3.37;;;;;;;21.06;52.90;97878.94;8404994;28;20298;-62
2021/09/16 16:37:05;;;;;;;4.13;3.70;;;;;;;21.06;52.24;97876.31;8410755;28;20206;-63
2021/09/16 16:41:09;;;;;;;4.10;3.70;;;;;;;20.99;51.64;97884.88;8402548;28;20207;-63
2021/09/16 16:45:15;;;;;;;7.67;4.13;;;;;;;20.97;52.38;97890.28;8402784;28;20226;-63
2021/09/16 16:49:18;;;;;;;5.80;4.33;;;;;;;20.87;52.60;97889.44;8407710;28;20198;-63
2021/09/16 16:53:20;;;;;;;6.37;4.40;;;;;;;20.84;52.82;97906.31;8406787;28;20373;-63
2021/09/16 16:57:25;;;;;;;4.83;4.00;;;;;;;20.81;52.72;97909.22;8415974;28;20198;-64
2021/09/16 17:01:28;;;;;;;9.10;4.10;;;;;;;20.86;53.09;97908.81;8390602;28;20192;-63
2021/09/16 17:05:32;;;;;;;7.83;5.70;;;;;;;20.81;52.61;97918.91;8388055;28;20229;-63
2021/09/16 17:09:35;;;;;;;7.80;7.10;;;;;;;20.68;53.02;97922.63;8400845;28;20237;-64
2021/09/16 17:13:39;;;;;;;6.23;4.80;;;;;;;20.74;52.28;97923.06;8407668;28;20198;-63
2021/09/16 17:17:42;;;;;;;6.80;4.73;;;;;;;20.66;52.12;97926.34;8407429;28;20504;-64
2021/09/16 17:21:45;;;;;;;6.20;4.43;;;;;;;20.68;51.81;97932.31;8407308;28;20203;-64
2021/09/16 17:25:48;;;;;;;17.70;5.10;;;;;;;20.67;52.02;97941.16;8402630;28;20217;-64
2021/09/16 17:29:52;;;;;;;5.77;4.23;;;;;;;20.39;51.94;97937.38;8406955;28;20202;-63
2021/09/16 17:33:55;;;;;;;7.60;6.80;;;;;;;20.37;52.45;97937.53;8417716;28;20408;-63
2021/09/16 17:38:12;;;;;;;6.40;5.70;;;;;;;20.30;52.02;97936.38;8417592;28;20571;-63
2021/09/16 17:42:15;;;;;;;6.33;4.30;;;;;;;20.27;52.39;97932.19;8417509;28;20201;-63
2021/09/16 17:46:19;;;;;;;21.30;4.87;;;;;;;20.22;52.12;97934.41;8416941;28;20230;-63
2021/09/16 17:50:22;;;;;;;30.87;5.77;;;;;;;20.11;52.39;97935.31;8416762;28;20205;-63
2021/09/16 17:54:25;;;;;;;8.03;4.60;;;;;;;20.02;52.41;97941.31;8399613;28;20204;-64
2021/09/16 17:58:28;;;;;;;6.97;4.90;;;;;;;20.03;52.69;97943.00;8400013;28;20203;-63
2021/09/16 18:02:32;;;;;;;8.67;4.90;;;;;;;19.98;52.72;97945.19;8394044;28;20207;-63
2021/09/16 18:06:36;;;;;;;25.53;6.27;;;;;;;20.00;53.27;97939.78;8390928;28;20238;-63
2021/09/16 18:10:39;;;;;;;9.70;4.90;;;;;;;19.84;53.24;97941.06;8416664;28;20212;-64
2021/09/16 18:14:42;;;;;;;9.07;5.53;;;;;;;19.88;52.86;97949.53;8416594;28;20494;-63
2021/09/16 18:18:46;;;;;;;8.27;5.00;;;;;;;19.67;53.37;97949.50;8416772;28;20204;-63
2021/09/16 18:22:49;;;;;;;6.03;5.30;;;;;;;19.63;53.60;97945.41;8416402;28;20421;-63
2021/09/16 18:26:52;;;;;;;5.70;5.10;;;;;;;19.69;53.43;97956.28;8415805;28;20443;-63
2021/09/16 18:30:55;;;;;;;7.13;5.30;;;;;;;19.47;54.03;97967.69;8416322;28;20439;-63
2021/09/16 18:35:00;;;;;;;6.33;5.20;;;;;;;19.41;54.12;97965.56;8414998;28;20281;-64
2021/09/16 18:39:03;;;;;;;6.50;5.80;;;;;;;19.44;54.39;97970.56;8415363;28;20210;-64
2021/09/16 18:43:06;;;;;;;6.13;5.45;;;;;;;19.49;53.50;97973.63;8415375;28;20427;-83
2021/09/16 18:47:09;;;;;;;8.57;5.80;;;;;;;19.28;53.81;97975.38;8416698;28;20223;-84
2021/09/16 18:51:13;;;;;;;6.83;5.80;;;;;;;19.21;54.07;97984.69;8415705;28;20213;-82
2021/09/16 18:55:16;;;;;;;8.87;5.77;;;;;;;19.13;54.42;97985.28;8407932;28;20210;-82
2021/09/16 18:59:19;;;;;;;10.00;6.18;;;;;;;19.56;52.88;97987.13;8411337;28;20440;-79
2021/09/16 19:03:22;;;;;;;11.17;6.60;;;;;;;19.05;54.46;97980.66;8415344;28;20206;-79
2021/09/16 19:07:27;;;;;;;8.10;6.00;;;;;;;19.11;54.20;97981.97;8415416;28;20568;-76